Time;durP1;ratioP1;P1;durP2;ratioP2;P2;SDS_P1;SDS_P2;PMS_P1;PMS_P2;Temp;Humidity;BMP_temperature;BMP_pressure;BME280_temperature;BME280_humidity;BME280_pressure;Samples;Min_cycle;Max_cycle;Signal;HPM_P1;HPM_P2
2022/12/06 00:01:20;;;;;;;29.80;8.70;;;;;;;;;;4998556;28;20039;-66
2022/12/06 00:03:47;;;;;;;28.50;8.20;;;;;;;;;;4998092;28;20069;-65
2022/12/06 00:06:15;;;;;;;24.63;8.47;;;;;;;;;;5002325;28;20481;-65
2022/12/06 00:08:42;;;;;;;24.17;7.67;;;;;;;;;;5001101;28;20052;-65
2022/12/06 00:11:12;;;;;;;26.07;8.00;;;;;;;;;;5002741;28;20472;-66
2022/12/06 00:13:39;;;;;;;27.50;8.70;;;;;;;;;;4998526;28;20109;-66
2022/12/06 00:16:06;;;;;;;26.10;8.40;;;;;;;;;;5000863;28;20042;-66
2022/12/06 00:18:33;;;;;;;20.67;7.87;;;;;;;;;;5004051;28;20699;-66
2022/12/06 00:21:22;;;;;;;22.07;7.57;;;;;;;;;;5003792;28;20101;-65
2022/12/06 00:23:49;;;;;;;17.00;6.83;;;;;;;;;;5004115;28;20041;-66
2022/12/06 00:26:15;;;;;;;19.17;6.40;;;;;;;;;;4997504;28;20045;-66
2022/12/06 00:28:42;;;;;;;18.57;6.63;;;;;;;;;;5000391;28;20497;-66
2022/12/06 00:31:09;;;;;;;16.83;6.67;;;;;;;;;;5000350;28;20580;-66
2022/12/06 00:33:36;;;;;;;21.97;6.50;;;;;;;;;;5000843;28;20539;-65
2022/12/06 00:36:22;;;;;;;19.00;7.27;;;;;;;;;;5001623;28;20141;-65
2022/12/06 00:38:48;;;;;;;16.00;6.10;;;;;;;;;;4996390;28;20077;-65
2022/12/06 00:41:15;;;;;;;19.13;6.97;;;;;;;;;;4996114;28;20054;-66
2022/12/06 00:43:42;;;;;;;25.63;7.43;;;;;;;;;;4997726;28;20057;-65
2022/12/06 00:46:10;;;;;;;18.30;6.43;;;;;;;;;;4997664;28;20477;-66
2022/12/06 00:48:36;;;;;;;18.40;7.60;;;;;;;;;;4998656;28;20079;-66
2022/12/06 00:51:02;;;;;;;18.83;7.50;;;;;;;;;;5000413;28;20045;-66
2022/12/06 00:53:28;;;;;;;24.50;9.07;;;;;;;;;;4998468;28;20042;-65
2022/12/06 00:55:54;;;;;;;21.83;7.70;;;;;;;;;;4998237;28;20583;-65
2022/12/06 00:58:21;;;;;;;28.97;9.97;;;;;;;;;;4998180;28;20042;-65
2022/12/06 01:00:47;;;;;;;26.77;10.10;;;;;;;;;;5001860;28;20092;-66
2022/12/06 01:03:13;;;;;;;36.67;11.20;;;;;;;;;;4998248;28;20085;-66
2022/12/06 01:05:40;;;;;;;35.37;11.30;;;;;;;;;;5001527;28;20081;-66
2022/12/06 01:08:06;;;;;;;36.40;10.20;;;;;;;;;;5000018;28;20038;-66
2022/12/06 01:10:32;;;;;;;29.57;9.23;;;;;;;;;;4999227;28;20044;-65
2022/12/06 01:12:58;;;;;;;27.87;9.17;;;;;;;;;;5002368;28;20053;-66
2022/12/06 01:15:25;;;;;;;30.53;8.90;;;;;;;;;;5009819;28;20420;-66
2022/12/06 01:17:51;;;;;;;30.83;9.70;;;;;;;;;;5008260;28;20053;-66
2022/12/06 01:20:17;;;;;;;27.73;9.37;;;;;;;;;;5009128;28;20116;-66
2022/12/06 01:22:43;;;;;;;26.20;8.83;;;;;;;;;;5009619;28;20486;-66
2022/12/06 01:25:09;;;;;;;26.07;8.70;;;;;;;;;;4994027;28;20049;-65
2022/12/06 01:27:35;;;;;;;25.73;8.27;;;;;;;;;;4990110;28;20046;-65
2022/12/06 01:30:01;;;;;;;20.17;6.73;;;;;;;;;;4989261;28;20054;-65
2022/12/06 01:32:28;;;;;;;20.23;7.13;;;;;;;;;;4972727;28;20448;-65
2022/12/06 01:34:54;;;;;;;23.47;7.13;;;;;;;;;;4980427;28;20530;-66
2022/12/06 01:37:20;;;;;;;23.03;6.83;;;;;;;;;;4991171;28;20578;-66
2022/12/06 01:39:46;;;;;;;22.00;7.60;;;;;;;;;;4989358;28;20046;-65
2022/12/06 01:42:13;;;;;;;20.60;6.97;;;;;;;;;;4997478;28;20066;-66
2022/12/06 01:44:39;;;;;;;25.57;7.63;;;;;;;;;;4992005;28;20532;-65
2022/12/06 01:47:10;;;;;;;20.73;7.43;;;;;;;;;;4987321;28;20059;-65
2022/12/06 01:49:36;;;;;;;27.27;7.47;;;;;;;;;;4988133;28;20089;-66
2022/12/06 01:52:04;;;;;;;26.93;8.03;;;;;;;;;;4989442;28;20092;-65
2022/12/06 01:54:31;;;;;;;20.13;8.00;;;;;;;;;;4989281;28;20050;-65
2022/12/06 01:56:58;;;;;;;18.83;7.60;;;;;;;;;;4989032;28;20082;-66
2022/12/06 01:59:25;;;;;;;20.57;7.30;;;;;;;;;;4992558;28;20416;-66
2022/12/06 02:01:51;;;;;;;21.17;7.43;;;;;;;;;;5001198;28;20096;-66
2022/12/06 02:04:18;;;;;;;29.40;8.70;;;;;;;;;;4989223;28;20038;-66
2022/12/06 02:06:45;;;;;;;27.63;8.13;;;;;;;;;;4989469;28;20050;-66
2022/12/06 02:09:11;;;;;;;21.60;8.13;;;;;;;;;;4988805;28;20039;-65
2022/12/06 02:11:38;;;;;;;31.97;8.60;;;;;;;;;;4988429;28;20050;-66
2022/12/06 02:14:05;;;;;;;18.80;7.73;;;;;;;;;;4989485;28;20057;-66
2022/12/06 02:16:50;;;;;;;18.97;7.27;;;;;;;;;;4989496;28;20219;-66
2022/12/06 02:19:34;;;;;;;18.43;6.80;;;;;;;;;;4989155;28;20459;-66
2022/12/06 02:22:09;;;;;;;22.93;7.40;;;;;;;;;;4987811;28;20517;-66
2022/12/06 02:24:58;;;;;;;20.67;6.83;;;;;;;;;;4991166;28;20065;-65
2022/12/06 02:27:26;;;;;;;21.60;7.10;;;;;;;;;;4989128;28;20042;-65
2022/12/06 02:29:52;;;;;;;19.00;6.90;;;;;;;;;;4987805;28;20048;-66
2022/12/06 02:32:26;;;;;;;18.57;7.60;;;;;;;;;;4989241;28;20058;-66
2022/12/06 02:34:56;;;;;;;25.42;7.00;;;;;;;;;;4988378;28;20124;-65
2022/12/06 02:37:25;;;;;;;22.63;7.43;;;;;;;;;;4988716;28;20173;-66
2022/12/06 02:39:54;;;;;;;21.40;6.87;;;;;;;;;;4989191;28;20039;-66
2022/12/06 02:42:22;;;;;;;20.63;6.87;;;;;;;;;;4988679;28;20089;-66
2022/12/06 02:44:57;;;;;;;17.97;6.43;;;;;;;;;;4995027;28;20060;-66
2022/12/06 02:47:42;;;;;;;18.33;5.73;;;;;;;;;;5008667;28;20058;-66
2022/12/06 02:50:10;;;;;;;17.73;6.87;;;;;;;;;;5006270;28;20053;-66
2022/12/06 02:52:38;;;;;;;19.17;6.50;;;;;;;;;;5008738;28;20100;-66
2022/12/06 02:55:07;;;;;;;17.17;6.07;;;;;;;;;;5007487;28;20089;-65
2022/12/06 02:57:41;;;;;;;17.03;6.27;;;;;;;;;;5008772;28;20057;-65
2022/12/06 03:00:25;;;;;;;20.17;6.50;;;;;;;;;;5008346;28;20046;-66
2022/12/06 03:02:57;;;;;;;16.50;6.00;;;;;;;;;;4991297;28;20137;-66
2022/12/06 03:05:27;;;;;;;20.13;7.17;;;;;;;;;;4989330;28;20043;-66
2022/12/06 03:07:53;;;;;;;20.20;7.40;;;;;;;;;;5008628;28;20046;-66
2022/12/06 03:10:25;;;;;;;28.37;7.27;;;;;;;;;;5008298;28;20053;-66
2022/12/06 03:12:51;;;;;;;27.17;7.17;;;;;;;;;;4990686;28;20046;-66
2022/12/06 03:15:32;;;;;;;27.87;7.97;;;;;;;;;;5008738;28;20056;-65
2022/12/06 03:18:03;;;;;;;20.63;6.83;;;;;;;;;;5008544;28;20489;-65
2022/12/06 03:20:41;;;;;;;23.87;7.93;;;;;;;;;;5008181;28;20424;-66
2022/12/06 03:23:09;;;;;;;20.47;6.77;;;;;;;;;;5002263;28;20082;-66
2022/12/06 03:25:36;;;;;;;21.93;7.77;;;;;;;;;;4988572;28;20050;-66
2022/12/06 03:28:04;;;;;;;18.47;7.27;;;;;;;;;;4971591;28;20050;-66
2022/12/06 03:30:32;;;;;;;19.13;6.73;;;;;;;;;;4988750;28;20141;-66
2022/12/06 03:32:58;;;;;;;21.43;7.50;;;;;;;;;;4988988;28;20061;-66
2022/12/06 03:35:26;;;;;;;20.23;7.47;;;;;;;;;;4989370;28;20042;-66
2022/12/06 03:37:56;;;;;;;22.37;7.27;;;;;;;;;;4994232;28;20605;-65
2022/12/06 03:40:29;;;;;;;20.70;7.20;;;;;;;;;;4999012;28;20565;-66
2022/12/06 03:42:55;;;;;;;;;;;;;;;;;;4991184;28;20087;-66
2022/12/06 03:45:23;;;;;;;18.43;6.67;;;;;;;;;;4992519;28;20398;-65
2022/12/06 03:47:49;;;;;;;21.23;6.93;;;;;;;;;;4991461;28;20084;-66
2022/12/06 03:50:18;;;;;;;21.33;6.90;;;;;;;;;;4991068;28;20572;-66
2022/12/06 03:52:44;;;;;;;16.90;6.53;;;;;;;;;;5006198;28;20125;-66
2022/12/06 03:55:10;;;;;;;18.17;6.60;;;;;;;;;;5000689;28;20045;-66
2022/12/06 03:57:36;;;;;;;21.87;7.57;;;;;;;;;;4998668;28;20053;-66
2022/12/06 04:00:03;;;;;;;18.43;7.23;;;;;;;;;;5001865;28;20619;-66
2022/12/06 04:02:29;;;;;;;15.50;5.80;;;;;;;;;;5011814;28;20060;-66
2022/12/06 04:04:55;;;;;;;15.17;6.20;;;;;;;;;;5010532;28;20050;-65
2022/12/06 04:07:21;;;;;;;23.17;7.27;;;;;;;;;;5011350;28;20046;-66
2022/12/06 04:09:51;;;;;;;20.27;6.70;;;;;;;;;;5011628;28;20128;-65
2022/12/06 04:15:01;;;;;;;17.83;6.40;;;;;;;;;;5005973;28;20050;-66
2022/12/06 04:20:12;;;;;;;17.30;6.10;;;;;;;;;;5010966;28;20065;-65
2022/12/06 04:25:23;;;;;;;22.83;7.03;;;;;;;;;;5010851;28;20504;-65
2022/12/06 04:38:48;;;;;;;20.40;6.13;;;;;;;;;;5010666;28;20056;-65
2022/12/06 04:43:40;;;;;;;18.77;5.80;;;;;;;;;;5009136;28;20045;-66
2022/12/06 04:44:00;;;;;;;25.83;7.47;;;;;;;;;;5010483;28;20062;-66
2022/12/06 04:46:26;;;;;;;21.33;6.00;;;;;;;;;;5010940;28;20049;-66
2022/12/06 04:48:52;;;;;;;18.90;5.23;;;;;;;;;;4996368;28;20061;-66
2022/12/06 04:51:19;;;;;;;15.83;5.63;;;;;;;;;;4990051;28;20417;-66
2022/12/06 04:53:45;;;;;;;22.63;6.47;;;;;;;;;;4990438;28;20170;-66
2022/12/06 04:56:11;;;;;;;16.10;6.03;;;;;;;;;;4990878;28;20133;-66
2022/12/06 04:58:37;;;;;;;26.00;7.23;;;;;;;;;;4990427;28;20504;-65
2022/12/06 05:01:03;;;;;;;22.17;6.60;;;;;;;;;;4991156;28;20046;-65
2022/12/06 05:03:29;;;;;;;17.37;5.67;;;;;;;;;;4990820;28;20046;-65
2022/12/06 05:05:55;;;;;;;16.80;5.77;;;;;;;;;;4991473;28;20077;-66
2022/12/06 05:08:21;;;;;;;25.53;6.27;;;;;;;;;;4989835;28;20049;-66
2022/12/06 05:10:51;;;;;;;18.80;6.37;;;;;;;;;;4988753;28;20049;-65
2022/12/06 05:13:17;;;;;;;14.20;4.83;;;;;;;;;;4990774;28;20068;-65
2022/12/06 05:15:54;;;;;;;17.47;5.70;;;;;;;;;;4990605;28;20576;-66
2022/12/06 05:18:20;;;;;;;24.60;5.77;;;;;;;;;;4990342;28;20409;-66
2022/12/06 05:20:46;;;;;;;13.30;4.97;;;;;;;;;;4990351;28;20054;-65
2022/12/06 05:23:12;;;;;;;16.67;5.97;;;;;;;;;;4990989;28;20048;-66
2022/12/06 05:25:38;;;;;;;22.10;6.07;;;;;;;;;;4990620;28;20050;-66
2022/12/06 05:28:04;;;;;;;19.37;5.87;;;;;;;;;;4990762;28;20050;-65
2022/12/06 05:30:31;;;;;;;18.30;5.60;;;;;;;;;;4988521;28;20117;-65
2022/12/06 05:32:57;;;;;;;20.83;6.13;;;;;;;;;;4990368;28;20054;-66
2022/12/06 05:35:23;;;;;;;28.23;7.00;;;;;;;;;;4990337;28;20054;-66
2022/12/06 05:37:49;;;;;;;15.73;5.60;;;;;;;;;;4990007;28;20050;-66
2022/12/06 05:40:15;;;;;;;18.37;5.70;;;;;;;;;;4988909;28;20057;-65
2022/12/06 05:42:42;;;;;;;14.33;5.00;;;;;;;;;;4988888;28;20432;-66
2022/12/06 05:45:09;;;;;;;15.23;5.50;;;;;;;;;;4988434;28;20108;-66
2022/12/06 05:47:35;;;;;;;18.13;5.97;;;;;;;;;;4992340;28;20121;-66
2022/12/06 05:50:03;;;;;;;21.30;5.63;;;;;;;;;;5009709;28;20499;-66
2022/12/06 05:52:29;;;;;;;17.03;5.17;;;;;;;;;;5008748;28;20076;-65
2022/12/06 05:54:55;;;;;;;17.60;5.53;;;;;;;;;;5007241;28;20064;-66
2022/12/06 05:57:21;;;;;;;17.90;5.90;;;;;;;;;;4990008;28;20107;-66
2022/12/06 05:59:47;;;;;;;14.80;5.90;;;;;;;;;;4997285;28;20047;-66
2022/12/06 06:02:13;;;;;;;23.17;5.70;;;;;;;;;;4986446;28;20580;-66
2022/12/06 06:04:39;;;;;;;21.00;6.43;;;;;;;;;;5001608;28;20081;-66
2022/12/06 06:07:05;;;;;;;19.33;5.67;;;;;;;;;;4987877;28;20286;-66
2022/12/06 06:09:31;;;;;;;24.13;6.30;;;;;;;;;;4989291;28;20467;-65
2022/12/06 06:11:57;;;;;;;16.30;6.10;;;;;;;;;;4990836;28;20059;-66
2022/12/06 06:14:23;;;;;;;23.20;6.70;;;;;;;;;;5000805;28;20642;-66
2022/12/06 06:16:50;;;;;;;21.77;6.03;;;;;;;;;;4996868;28;20046;-66
2022/12/06 06:19:17;;;;;;;19.53;6.57;;;;;;;;;;4988984;28;20061;-66
2022/12/06 06:21:43;;;;;;;17.07;5.70;;;;;;;;;;4992903;28;20086;-66
2022/12/06 06:24:09;;;;;;;20.90;6.73;;;;;;;;;;5009155;28;20041;-66
2022/12/06 06:26:35;;;;;;;18.30;6.00;;;;;;;;;;5000585;28;20046;-66
2022/12/06 06:29:01;;;;;;;29.23;6.70;;;;;;;;;;4996890;28;20459;-66
2022/12/06 06:31:27;;;;;;;11.17;5.13;;;;;;;;;;4991285;28;20049;-66
2022/12/06 06:33:53;;;;;;;20.73;7.03;;;;;;;;;;4990535;28;20047;-66
2022/12/06 06:36:19;;;;;;;16.10;6.03;;;;;;;;;;4994048;28;20057;-66
2022/12/06 06:38:45;;;;;;;20.47;6.20;;;;;;;;;;5008617;28;20452;-66
2022/12/06 06:41:11;;;;;;;20.57;6.80;;;;;;;;;;5006843;28;20056;-65
2022/12/06 06:43:37;;;;;;;25.43;6.77;;;;;;;;;;5008164;28;20112;-66
2022/12/06 06:46:05;;;;;;;27.97;8.13;;;;;;;;;;5000861;28;20542;-66
2022/12/06 06:48:33;;;;;;;23.57;6.90;;;;;;;;;;5001232;28;20566;-66
2022/12/06 06:51:03;;;;;;;25.00;7.97;;;;;;;;;;4994453;28;20042;-66
2022/12/06 06:53:30;;;;;;;22.17;7.33;;;;;;;;;;4996449;28;20038;-66
2022/12/06 06:55:56;;;;;;;54.13;11.67;;;;;;;;;;5001512;28;20054;-66
2022/12/06 06:58:22;;;;;;;23.47;6.50;;;;;;;;;;4999369;28;20061;-66
2022/12/06 07:00:55;;;;;;;16.70;5.73;;;;;;;;;;5000130;28;20046;-66
2022/12/06 07:03:22;;;;;;;31.80;7.72;;;;;;;;;;4998141;28;20569;-65
2022/12/06 07:05:52;;;;;;;25.50;6.97;;;;;;;;;;4993877;28;20101;-66
2022/12/06 07:08:18;;;;;;;115.97;14.53;;;;;;;;;;4995390;28;20065;-66
2022/12/06 07:10:47;;;;;;;25.20;7.37;;;;;;;;;;4996294;28;20129;-66
2022/12/06 07:13:24;;;;;;;28.03;8.00;;;;;;;;;;4981968;28;20133;-65
2022/12/06 07:15:51;;;;;;;24.00;7.57;;;;;;;;;;4996805;28;20456;-66
2022/12/06 07:18:17;;;;;;;21.30;6.43;;;;;;;;;;5003944;28;20173;-66
2022/12/06 07:20:44;;;;;;;23.43;7.27;;;;;;;;;;4996393;28;20049;-65
2022/12/06 07:23:10;;;;;;;25.07;8.70;;;;;;;;;;5004043;28;20046;-66
2022/12/06 07:25:36;;;;;;;25.93;7.57;;;;;;;;;;5001244;28;20117;-66
2022/12/06 07:28:03;;;;;;;24.17;6.73;;;;;;;;;;4999069;28;20045;-65
2022/12/06 07:30:29;;;;;;;19.93;7.33;;;;;;;;;;4998301;28;20043;-66
2022/12/06 07:32:55;;;;;;;35.70;8.87;;;;;;;;;;4997655;28;20058;-66
2022/12/06 07:35:21;;;;;;;24.43;7.93;;;;;;;;;;4998009;28;20884;-65
2022/12/06 07:37:47;;;;;;;24.23;8.07;;;;;;;;;;5004273;28;20284;-65
2022/12/06 07:40:14;;;;;;;28.20;9.23;;;;;;;;;;5003626;28;20046;-66
2022/12/06 07:45:25;;;;;;;30.80;8.70;;;;;;;;;;5001522;28;20057;-66
2022/12/06 07:47:52;;;;;;;31.07;9.03;;;;;;;;;;4999944;28;20054;-66
2022/12/06 07:50:19;;;;;;;24.87;8.27;;;;;;;;;;5001963;28;20608;-66
2022/12/06 07:52:45;;;;;;;22.57;7.97;;;;;;;;;;5000879;28;20427;-66
2022/12/06 07:55:12;;;;;;;27.97;9.03;;;;;;;;;;4981051;28;20325;-66
2022/12/06 07:57:38;;;;;;;36.73;8.63;;;;;;;;;;5004983;28;20340;-65
2022/12/06 08:00:05;;;;;;;52.73;9.93;;;;;;;;;;4997513;28;20377;-65
2022/12/06 08:02:31;;;;;;;46.00;10.57;;;;;;;;;;4997563;28;20304;-66
2022/12/06 08:04:57;;;;;;;40.17;9.70;;;;;;;;;;4996716;28;20358;-66
2022/12/06 08:07:24;;;;;;;28.73;9.13;;;;;;;;;;5000046;28;20289;-65
2022/12/06 08:09:51;;;;;;;51.63;10.77;;;;;;;;;;4999952;28;20049;-65
2022/12/06 08:12:17;;;;;;;35.93;9.13;;;;;;;;;;4985403;28;20553;-65
2022/12/06 08:14:43;;;;;;;44.70;9.43;;;;;;;;;;5000277;28;20309;-65
2022/12/06 08:17:09;;;;;;;24.33;7.37;;;;;;;;;;5002141;28;20302;-65
2022/12/06 08:19:36;;;;;;;24.70;8.50;;;;;;;;;;4991818;28;20309;-66
2022/12/06 08:22:02;;;;;;;27.07;7.83;;;;;;;;;;4994683;28;20316;-65
2022/12/06 08:24:28;;;;;;;22.00;7.60;;;;;;;;;;4993023;28;21128;-65
2022/12/06 08:26:54;;;;;;;24.60;8.50;;;;;;;;;;5008811;28;20281;-66
2022/12/06 08:29:20;;;;;;;31.97;9.50;;;;;;;;;;5002781;28;20285;-65
2022/12/06 08:31:47;;;;;;;30.57;9.23;;;;;;;;;;4995147;28;20107;-65
2022/12/06 08:34:14;;;;;;;19.83;7.60;;;;;;;;;;5008489;28;20038;-65
2022/12/06 08:36:40;;;;;;;22.73;8.97;;;;;;;;;;5010990;28;20280;-65
2022/12/06 08:39:07;;;;;;;27.43;8.67;;;;;;;;;;5001976;28;20297;-66
2022/12/06 08:44:18;;;;;;;19.37;7.20;;;;;;;;;;5007970;28;20491;-65
2022/12/06 08:46:44;;;;;;;24.10;8.43;;;;;;;;;;4991326;28;20305;-65
2022/12/06 08:49:10;;;;;;;28.53;9.07;;;;;;;;;;5004953;28;20129;-65
2022/12/06 08:51:37;;;;;;;18.00;7.43;;;;;;;;;;4989464;28;20309;-66
2022/12/06 08:54:03;;;;;;;20.33;7.03;;;;;;;;;;5008153;28;20068;-66
2022/12/06 08:56:29;;;;;;;22.87;8.20;;;;;;;;;;5008396;28;20042;-66
2022/12/06 08:58:55;;;;;;;27.77;8.97;;;;;;;;;;5009220;28;20093;-66
2022/12/06 09:01:23;;;;;;;25.57;8.33;;;;;;;;;;5001283;28;20053;-66
2022/12/06 09:03:49;;;;;;;31.70;9.80;;;;;;;;;;5003362;28;20050;-65
2022/12/06 09:06:16;;;;;;;13.57;7.00;;;;;;;;;;5007596;28;20044;-66
2022/12/06 09:08:42;;;;;;;19.27;7.07;;;;;;;;;;5009241;28;20045;-66
2022/12/06 09:11:08;;;;;;;12.00;6.10;;;;;;;;;;5008551;28;20484;-65
2022/12/06 09:13:36;;;;;;;15.70;6.47;;;;;;;;;;5007894;28;20046;-66
2022/12/06 09:16:13;;;;;;;14.37;6.30;;;;;;;;;;4992488;28;20515;-65
2022/12/06 09:18:39;;;;;;;16.47;6.80;;;;;;;;;;5002501;28;20634;-65
2022/12/06 09:21:16;;;;;;;19.43;8.13;;;;;;;;;;4999680;28;20718;-66
2022/12/06 09:23:42;;;;;;;10.90;5.57;;;;;;;;;;5006769;28;20124;-65
2022/12/06 09:26:09;;;;;;;17.83;6.97;;;;;;;;;;5009486;28;20053;-66
2022/12/06 09:28:36;;;;;;;12.27;5.70;;;;;;;;;;5006171;28;20049;-66
2022/12/06 09:31:03;;;;;;;14.27;5.90;;;;;;;;;;5007406;28;20063;-66
2022/12/06 09:33:29;;;;;;;10.40;4.73;;;;;;;;;;5009277;28;20045;-66
2022/12/06 09:35:55;;;;;;;16.83;6.07;;;;;;;;;;4990578;28;20065;-66
2022/12/06 09:38:23;;;;;;;12.57;5.90;;;;;;;;;;4987871;28;20048;-66
2022/12/06 09:40:56;;;;;;;11.77;4.90;;;;;;;;;;4988505;28;20079;-65
2022/12/06 09:43:41;;;;;;;13.10;5.30;;;;;;;;;;4989667;28;20054;-65
2022/12/06 09:46:25;;;;;;;10.80;4.40;;;;;;;;;;4989318;28;20065;-65
2022/12/06 09:48:57;;;;;;;9.90;4.63;;;;;;;;;;4989173;28;20109;-66
2022/12/06 09:51:26;;;;;;;13.00;5.70;;;;;;;;;;4995490;28;20367;-66
2022/12/06 09:54:05;;;;;;;15.33;4.93;;;;;;;;;;4995263;28;20053;-66
2022/12/06 09:56:47;;;;;;;8.90;4.40;;;;;;;;;;4989684;28;20170;-66
2022/12/06 09:59:18;;;;;;;9.87;4.70;;;;;;;;;;5000716;28;20042;-66
2022/12/06 10:01:52;;;;;;;9.87;4.37;;;;;;;;;;4989046;28;20116;-66
2022/12/06 10:04:24;;;;;;;6.97;4.27;;;;;;;;;;5003742;28;20046;-66
2022/12/06 10:07:02;;;;;;;12.17;4.27;;;;;;;;;;5006164;28;20050;-65
2022/12/06 10:09:35;;;;;;;8.57;3.57;;;;;;;;;;4995861;28;20037;-65
2022/12/06 10:12:08;;;;;;;10.00;3.20;;;;;;;;;;4999234;28;20530;-65
2022/12/06 10:14:53;;;;;;;8.47;3.50;;;;;;;;;;5008445;28;20048;-66
2022/12/06 10:17:22;;;;;;;9.17;2.90;;;;;;;;;;5007883;28;20504;-66
2022/12/06 10:20:03;;;;;;;6.67;3.67;;;;;;;;;;5007020;28;20050;-66
2022/12/06 10:22:35;;;;;;;7.83;3.33;;;;;;;;;;4989745;28;20441;-65
2022/12/06 10:25:01;;;;;;;6.00;3.10;;;;;;;;;;4999014;28;20411;-65
2022/12/06 10:27:38;;;;;;;5.83;2.70;;;;;;;;;;4991587;28;20194;-65
2022/12/06 10:30:07;;;;;;;7.97;2.10;;;;;;;;;;4987007;28;20047;-66
2022/12/06 10:32:50;;;;;;;5.07;1.40;;;;;;;;;;4995824;28;20151;-66
2022/12/06 10:35:28;;;;;;;4.47;1.90;;;;;;;;;;5004885;28;20378;-66
2022/12/06 10:38:14;;;;;;;6.60;1.93;;;;;;;;;;5008371;28;20079;-66
2022/12/06 10:40:46;;;;;;;2.73;1.60;;;;;;;;;;4997518;28;20062;-65
2022/12/06 10:43:32;;;;;;;5.50;2.07;;;;;;;;;;5006504;28;20497;-65
2022/12/06 10:49:09;;;;;;;3.03;1.30;;;;;;;;;;5000440;28;20050;-66
2022/12/06 10:51:46;;;;;;;4.07;1.50;;;;;;;;;;5009059;28;20045;-65
2022/12/06 10:54:18;;;;;;;3.90;1.30;;;;;;;;;;5009283;28;20045;-65
2022/12/06 10:56:44;;;;;;;3.30;1.63;;;;;;;;;;4976721;28;20431;-66
2022/12/06 10:59:22;;;;;;;6.37;1.50;;;;;;;;;;4996225;28;20046;-66
2022/12/06 11:01:48;;;;;;;3.83;1.70;;;;;;;;;;4998592;28;20377;-65
2022/12/06 11:04:34;;;;;;;5.20;1.60;;;;;;;;;;5005149;28;20368;-66
2022/12/06 11:07:19;;;;;;;4.07;1.87;;;;;;;;;;4994006;28;20117;-66
2022/12/06 11:09:48;;;;;;;3.73;2.20;;;;;;;;;;5003882;28;20058;-66
2022/12/06 11:12:20;;;;;;;3.93;2.53;;;;;;;;;;5010984;28;20077;-65
2022/12/06 11:14:50;;;;;;;6.13;2.10;;;;;;;;;;4993092;28;20046;-66
2022/12/06 11:17:19;;;;;;;4.37;1.70;;;;;;;;;;4994502;28;20396;-65
2022/12/06 11:19:49;;;;;;;5.73;1.90;;;;;;;;;;4992374;28;20112;-65
2022/12/06 11:22:36;;;;;;;2.57;1.37;;;;;;;;;;4992679;28;20081;-65
2022/12/06 11:25:06;;;;;;;4.60;1.90;;;;;;;;;;4990982;28;20050;-65
2022/12/06 11:27:33;;;;;;;6.03;1.57;;;;;;;;;;4998051;28;20627;-65
2022/12/06 11:30:01;;;;;;;6.50;1.53;;;;;;;;;;5007880;28;20100;-65
2022/12/06 11:32:28;;;;;;;3.93;1.13;;;;;;;;;;4995666;28;20277;-66
2022/12/06 11:34:56;;;;;;;6.70;1.30;;;;;;;;;;4986348;28;20073;-65
2022/12/06 11:37:23;;;;;;;4.90;1.37;;;;;;;;;;4996901;28;20042;-65
2022/12/06 11:39:52;;;;;;;5.30;1.30;;;;;;;;;;5009643;28;20133;-65
2022/12/06 11:42:21;;;;;;;2.77;1.47;;;;;;;;;;5010714;28;20046;-65
2022/12/06 11:44:51;;;;;;;2.33;1.10;;;;;;;;;;5009382;28;20050;-65
2022/12/06 11:47:20;;;;;;;5.10;1.10;;;;;;;;;;5009162;28;20479;-65
2022/12/06 11:49:47;;;;;;;4.77;1.47;;;;;;;;;;5007681;28;20049;-65
2022/12/06 11:52:15;;;;;;;3.60;2.23;;;;;;;;;;5009911;28;20108;-65
2022/12/06 11:54:51;;;;;;;6.03;1.17;;;;;;;;;;5008470;28;20080;-65
2022/12/06 11:57:21;;;;;;;7.97;1.80;;;;;;;;;;5009870;28;20513;-65
2022/12/06 12:00:06;;;;;;;7.80;1.40;;;;;;;;;;5008395;28;20416;-65
2022/12/06 12:02:33;;;;;;;7.87;1.90;;;;;;;;;;4995733;28;20050;-65
2022/12/06 12:05:18;;;;;;;5.17;1.47;;;;;;;;;;4990321;28;20485;-65
2022/12/06 12:07:46;;;;;;;4.67;1.60;;;;;;;;;;4990178;28;20378;-65
2022/12/06 12:10:27;;;;;;;2.73;1.30;;;;;;;;;;4990336;28;20595;-65
2022/12/06 12:15:40;;;;;;;4.87;1.90;;;;;;;;;;4989063;28;20058;-65
2022/12/06 12:18:20;;;;;;;6.77;1.70;;;;;;;;;;4996027;28;20061;-65
2022/12/06 12:20:46;;;;;;;5.57;1.60;;;;;;;;;;5008852;28;20045;-65
2022/12/06 12:23:17;;;;;;;7.13;2.87;;;;;;;;;;5009633;28;20096;-65
2022/12/06 12:25:57;;;;;;;7.33;2.07;;;;;;;;;;5009401;28;20046;-65
2022/12/06 12:28:25;;;;;;;4.93;1.70;;;;;;;;;;5009346;28;20053;-65
2022/12/06 12:30:52;;;;;;;5.77;1.90;;;;;;;;;;5004958;28;20097;-65
2022/12/06 12:33:19;;;;;;;3.30;1.50;;;;;;;;;;4989266;28;20047;-65
2022/12/06 12:35:50;;;;;;;3.63;1.70;;;;;;;;;;4988265;28;20057;-65
2022/12/06 12:38:20;;;;;;;5.37;1.63;;;;;;;;;;4988573;28;20050;-65
2022/12/06 12:40:48;;;;;;;6.03;1.73;;;;;;;;;;4989086;28;20057;-65
2022/12/06 12:43:20;;;;;;;6.23;2.03;;;;;;;;;;4952263;28;1081255;-65
2022/12/06 12:46:02;;;;;;;4.33;2.17;;;;;;;;;;4990881;28;20139;-65
2022/12/06 12:48:28;;;;;;;5.33;1.73;;;;;;;;;;4999992;28;20050;-65
2022/12/06 12:50:56;;;;;;;5.80;1.73;;;;;;;;;;5008345;28;20507;-65
2022/12/06 12:53:29;;;;;;;6.37;1.63;;;;;;;;;;5010194;28;20041;-65
2022/12/06 12:56:14;;;;;;;4.53;2.00;;;;;;;;;;5009787;28;20062;-65
2022/12/06 12:58:41;;;;;;;6.87;1.93;;;;;;;;;;5008632;28;20061;-65
2022/12/06 13:01:26;;;;;;;3.47;1.70;;;;;;;;;;4999182;28;20038;-65
2022/12/06 13:03:54;;;;;;;5.50;1.50;;;;;;;;;;4990076;28;20500;-65
2022/12/06 13:06:26;;;;;;;5.40;2.03;;;;;;;;;;4990309;28;20046;-65
2022/12/06 13:08:53;;;;;;;6.07;1.63;;;;;;;;;;4988711;28;20055;-66
2022/12/06 13:11:20;;;;;;;4.17;1.30;;;;;;;;;;4990188;28;20218;-65
2022/12/06 13:13:49;;;;;;;5.47;1.80;;;;;;;;;;4996041;28;20049;-65
2022/12/06 13:16:18;;;;;;;4.20;1.27;;;;;;;;;;5009126;28;20046;-65
2022/12/06 13:18:45;;;;;;;3.57;1.47;;;;;;;;;;5009718;28;20057;-65
2022/12/06 13:21:22;;;;;;;8.13;1.80;;;;;;;;;;5009737;28;20135;-65
2022/12/06 13:23:51;;;;;;;3.90;1.20;;;;;;;;;;5009328;28;20401;-65
2022/12/06 13:26:24;;;;;;;3.07;1.40;;;;;;;;;;5009573;28;20049;-65
2022/12/06 13:28:53;;;;;;;5.25;1.88;;;;;;;;;;4998313;28;20050;-65
2022/12/06 13:31:24;;;;;;;5.63;1.30;;;;;;;;;;4989816;28;20049;-65
2022/12/06 13:33:58;;;;;;;7.50;2.13;;;;;;;;;;4989904;28;20054;-65
2022/12/06 13:36:25;;;;;;;3.57;1.30;;;;;;;;;;4989779;28;20515;-65
2022/12/06 13:38:51;;;;;;;4.53;1.20;;;;;;;;;;4987924;28;20061;-65
2022/12/06 13:42:16;;;;;;;4.93;1.33;;;;;;;;;;4971635;28;20343;-65
2022/12/06 13:44:26;;;;;;;4.90;1.47;;;;;;;;;;4987936;28;20494;-65
2022/12/06 13:47:12;;;;;;;3.57;1.30;;;;;;;;;;4987979;28;20489;-65
2022/12/06 13:49:44;;;;;;;5.70;1.20;;;;;;;;;;4989030;28;20752;-66
2022/12/06 13:52:30;;;;;;;4.23;1.57;;;;;;;;;;4989399;28;20058;-65
2022/12/06 13:54:56;;;;;;;5.83;1.60;;;;;;;;;;4988854;28;20058;-65
2022/12/06 13:57:24;;;;;;;6.27;1.87;;;;;;;;;;4971683;28;20050;-65
2022/12/06 13:59:50;;;;;;;7.60;3.07;;;;;;;;;;4989278;28;20061;-65
2022/12/06 14:02:34;;;;;;;3.17;1.50;;;;;;;;;;4988891;28;20054;-65
2022/12/06 14:05:01;;;;;;;5.33;1.80;;;;;;;;;;4989325;28;20042;-65
2022/12/06 14:07:32;;;;;;;5.60;1.40;;;;;;;;;;4989117;28;20050;-65
2022/12/06 14:10:07;;;;;;;4.00;1.77;;;;;;;;;;4988678;28;20052;-65
2022/12/06 14:12:33;;;;;;;4.60;2.20;;;;;;;;;;4994214;28;20061;-65
2022/12/06 14:15:01;;;;;;;5.37;1.60;;;;;;;;;;5008456;28;20423;-65
2022/12/06 14:17:40;;;;;;;4.93;1.90;;;;;;;;;;5007674;28;20046;-65
2022/12/06 14:20:27;;;;;;;5.03;2.13;;;;;;;;;;5008684;28;20049;-65
2022/12/06 14:22:53;;;;;;;5.23;2.10;;;;;;;;;;5008312;28;20058;-66
2022/12/06 14:25:20;;;;;;;6.43;2.83;;;;;;;;;;5002346;28;20412;-65
2022/12/06 14:27:48;;;;;;;5.70;1.90;;;;;;;;;;4988249;28;20125;-65
2022/12/06 14:30:17;;;;;;;5.33;1.60;;;;;;;;;;4988584;28;20057;-65
2022/12/06 14:32:47;;;;;;;6.73;2.20;;;;;;;;;;4988938;28;20133;-65
2022/12/06 14:35:15;;;;;;;4.97;1.83;;;;;;;;;;4970972;28;20058;-65
2022/12/06 14:37:52;;;;;;;4.00;1.87;;;;;;;;;;4987524;28;20537;-65
2022/12/06 14:43:00;;;;;;;3.80;1.77;;;;;;;;;;4988276;28;20038;-65
2022/12/06 14:43:23;;;;;;;6.67;2.03;;;;;;;;;;4988373;28;20054;-65
2022/12/06 14:45:49;;;;;;;4.77;1.90;;;;;;;;;;4988570;28;20077;-65
2022/12/06 14:48:16;;;;;;;4.17;1.40;;;;;;;;;;4987488;28;20058;-65
2022/12/06 14:50:57;;;;;;;4.03;1.60;;;;;;;;;;5000756;28;20041;-65
2022/12/06 14:53:37;;;;;;;5.63;1.67;;;;;;;;;;4994771;28;20050;-65
2022/12/06 14:56:05;;;;;;;4.83;1.90;;;;;;;;;;4988695;28;20046;-65
2022/12/06 14:58:36;;;;;;;3.77;1.57;;;;;;;;;;5003605;28;20057;-65
2022/12/06 15:01:04;;;;;;;3.07;1.37;;;;;;;;;;5008251;28;20152;-66
2022/12/06 15:03:31;;;;;;;4.77;1.70;;;;;;;;;;4984812;28;20072;-65
2022/12/06 15:06:11;;;;;;;4.70;1.70;;;;;;;;;;5003858;28;20034;-65
2022/12/06 15:08:38;;;;;;;3.70;1.63;;;;;;;;;;5012366;28;20053;-66
2022/12/06 15:14:12;;;;;;;8.37;2.17;;;;;;;;;;4998185;28;20049;-65
2022/12/06 15:16:38;;;;;;;4.40;1.63;;;;;;;;;;5003733;28;20046;-65
2022/12/06 15:19:09;;;;;;;5.30;1.50;;;;;;;;;;5002981;28;20050;-65
2022/12/06 15:21:35;;;;;;;4.63;2.17;;;;;;;;;;4986536;28;20409;-65